Time;durP1;ratioP1;P1;durP2;ratioP2;P2;SDS_P1;SDS_P2;PMS_P1;PMS_P2;Temp;Humidity;BMP_temperature;BMP_pressure;BME280_temperature;BME280_humidity;BME280_pressure;Samples;Min_cycle;Max_cycle;Signal;HPM_P1;HPM_P2
2023/08/24 00:00:40;;;;;;;10.93;6.18;;;18.80;99.90;;;;;;4999564;28;20051;-74
2023/08/24 00:03:06;;;;;;;9.82;5.72;;;18.90;99.90;;;;;;4996499;28;20027;-74
2023/08/24 00:05:36;;;;;;;13.13;5.90;;;18.90;99.90;;;;;;4989329;28;20756;-75
2023/08/24 00:08:04;;;;;;;10.35;6.40;;;18.90;99.90;;;;;;5011410;28;20033;-74
2023/08/24 00:10:29;;;;;;;12.63;6.28;;;18.90;99.90;;;;;;5006354;28;20022;-74
2023/08/24 00:12:55;;;;;;;11.50;7.15;;;18.90;99.90;;;;;;4991414;28;20022;-75
2023/08/24 00:15:21;;;;;;;12.50;7.18;;;18.90;99.90;;;;;;5011103;28;20028;-75
2023/08/24 00:17:46;;;;;;;11.98;6.80;;;18.90;99.90;;;;;;5002052;28;20057;-75
2023/08/24 00:20:13;;;;;;;11.73;7.47;;;18.90;99.90;;;;;;5000649;28;20541;-75
2023/08/24 00:22:39;;;;;;;13.60;7.43;;;18.90;99.90;;;;;;4990808;28;20433;-74
2023/08/24 00:25:07;;;;;;;14.35;7.75;;;18.90;99.90;;;;;;4997421;28;20109;-74
2023/08/24 00:27:33;;;;;;;13.57;7.60;;;18.90;99.90;;;;;;5004381;28;20048;-74
2023/08/24 00:29:59;;;;;;;10.95;7.20;;;18.90;99.90;;;;;;5001258;28;20030;-75
2023/08/24 00:32:24;;;;;;;10.90;7.25;;;18.90;99.90;;;;;;4988162;28;20108;-74
2023/08/24 00:34:50;;;;;;;9.98;6.68;;;18.90;99.90;;;;;;4998085;28;20029;-74
2023/08/24 00:37:15;;;;;;;10.95;7.35;;;18.90;99.90;;;;;;4995749;28;20462;-74
2023/08/24 00:39:41;;;;;;;14.27;7.30;;;18.90;99.90;;;;;;5002827;28;20448;-74
2023/08/24 00:42:07;;;;;;;12.15;7.75;;;18.90;99.90;;;;;;5005049;28;20034;-74
2023/08/24 00:44:33;;;;;;;12.73;7.07;;;18.90;99.90;;;;;;4991957;28;20054;-74
2023/08/24 00:46:59;;;;;;;11.68;6.88;;;18.90;99.90;;;;;;4995555;28;20557;-75
2023/08/24 00:49:26;;;;;;;10.75;6.95;;;18.90;99.90;;;;;;4991730;28;20019;-74
2023/08/24 00:51:52;;;;;;;9.20;6.20;;;18.90;99.90;;;;;;4987002;28;20225;-75
2023/08/24 00:54:18;;;;;;;13.88;6.95;;;18.90;99.90;;;;;;4989964;28;20105;-74
2023/08/24 00:56:44;;;;;;;9.02;5.70;;;18.90;99.90;;;;;;4998669;28;20026;-74
2023/08/24 00:59:10;;;;;;;12.48;5.93;;;18.90;99.90;;;;;;5002770;28;20061;-74
2023/08/24 01:01:36;;;;;;;8.95;5.80;;;18.90;99.90;;;;;;5013641;28;20702;-74
2023/08/24 01:04:02;;;;;;;9.23;5.32;;;18.90;99.90;;;;;;5001246;28;20418;-74
2023/08/24 01:06:28;;;;;;;11.10;5.50;;;18.90;99.90;;;;;;4998329;28;20382;-74
2023/08/24 01:08:54;;;;;;;12.50;5.70;;;18.90;99.90;;;;;;4994966;28;20022;-74
2023/08/24 01:11:53;;;;;;;9.43;5.13;;;19.00;99.90;;;;;;5007605;28;20022;-74
2023/08/24 01:14:22;;;;;;;11.25;5.50;;;19.00;99.90;;;;;;4993469;28;20037;-74
2023/08/24 01:16:50;;;;;;;12.10;5.45;;;19.00;99.90;;;;;;4981603;28;20033;-74
2023/08/24 01:19:41;;;;;;;7.82;5.05;;;19.00;99.90;;;;;;5001719;28;20014;-74
2023/08/24 01:22:31;;;;;;;13.60;5.70;;;19.00;99.90;;;;;;4996667;28;20125;-75
2023/08/24 01:25:19;;;;;;;11.27;6.32;;;19.10;99.90;;;;;;4982512;28;20030;-74
2023/08/24 01:27:47;;;;;;;11.48;5.97;;;19.10;99.90;;;;;;4994485;28;20034;-74
2023/08/24 01:30:14;;;;;;;11.23;5.97;;;19.10;99.90;;;;;;4994857;28;20033;-74
2023/08/24 01:32:40;;;;;;;10.52;5.65;;;19.10;99.90;;;;;;4989287;28;20026;-74
2023/08/24 01:35:09;;;;;;;12.80;6.05;;;19.10;99.90;;;;;;4997360;28;20019;-73
2023/08/24 01:37:35;;;;;;;8.93;5.70;;;19.10;99.90;;;;;;5001077;28;20038;-74
2023/08/24 01:40:17;;;;;;;9.88;5.78;;;19.10;99.90;;;;;;4991940;28;20022;-73
2023/08/24 01:42:59;;;;;;;9.77;5.68;;;19.20;99.90;;;;;;4998094;28;20041;-74
2023/08/24 01:45:29;;;;;;;8.43;6.20;;;19.10;99.90;;;;;;4991367;28;20038;-74
2023/08/24 01:47:56;;;;;;;9.65;6.25;;;19.10;99.90;;;;;;5001564;28;20026;-75
2023/08/24 01:50:23;;;;;;;11.27;6.05;;;19.10;99.90;;;;;;4989629;28;20026;-74
2023/08/24 01:52:49;;;;;;;14.68;5.88;;;19.10;99.90;;;;;;5000582;28;20030;-75
2023/08/24 01:55:18;;;;;;;10.30;6.03;;;19.10;99.90;;;;;;5003536;28;20056;-75
2023/08/24 01:57:44;;;;;;;18.60;6.38;;;19.10;99.90;;;;;;5000607;28;20031;-74
2023/08/24 02:00:10;;;;;;;9.23;5.70;;;19.00;99.90;;;;;;4998641;28;20046;-74
2023/08/24 02:02:36;;;;;;;12.25;6.13;;;19.00;99.90;;;;;;4998879;28;20042;-75
2023/08/24 02:05:03;;;;;;;12.13;6.60;;;19.00;99.90;;;;;;4995397;28;20030;-74
2023/08/24 02:07:29;;;;;;;12.55;6.72;;;19.00;99.90;;;;;;4988169;28;20386;-75
2023/08/24 02:09:54;;;;;;;14.98;6.50;;;19.00;99.90;;;;;;5007087;28;20101;-72
2023/08/24 02:12:20;;;;;;;12.15;6.95;;;19.00;99.90;;;;;;4998876;28;20057;-74
2023/08/24 02:14:45;;;;;;;15.77;7.15;;;18.90;99.90;;;;;;4998822;28;20449;-74
2023/08/24 02:17:11;;;;;;;11.98;7.88;;;18.90;99.90;;;;;;4998307;28;20022;-74
2023/08/24 02:19:37;;;;;;;10.85;7.57;;;18.90;99.90;;;;;;4994452;28;20438;-74
2023/08/24 02:22:03;;;;;;;11.80;7.28;;;18.90;99.90;;;;;;4998045;28;20035;-73
2023/08/24 02:24:28;;;;;;;12.70;8.18;;;18.80;99.90;;;;;;4990231;28;20034;-74
2023/08/24 02:26:54;;;;;;;12.73;7.90;;;18.80;99.90;;;;;;4999240;28;20471;-73
2023/08/24 02:29:19;;;;;;;13.50;7.63;;;18.80;99.90;;;;;;5000517;28;20023;-74
2023/08/24 02:31:45;;;;;;;13.40;8.55;;;18.80;99.90;;;;;;4998384;28;20065;-74
2023/08/24 02:34:12;;;;;;;15.75;8.45;;;18.80;99.90;;;;;;4998083;28;20101;-74
2023/08/24 02:36:38;;;;;;;15.25;8.55;;;18.80;99.90;;;;;;4996468;28;20320;-74
2023/08/24 02:39:05;;;;;;;14.88;7.90;;;18.80;99.90;;;;;;4991325;28;20520;-74
2023/08/24 02:41:30;;;;;;;15.85;8.15;;;18.80;99.90;;;;;;5002239;28;20553;-74
2023/08/24 02:43:56;;;;;;;12.93;7.82;;;18.80;99.90;;;;;;4998299;28;20026;-74
2023/08/24 02:46:21;;;;;;;13.25;8.27;;;18.80;99.90;;;;;;5007340;28;20026;-74
2023/08/24 02:48:47;;;;;;;12.52;8.60;;;18.80;99.90;;;;;;5004551;28;20038;-74
2023/08/24 02:51:13;;;;;;;17.40;8.60;;;18.80;99.90;;;;;;5006465;28;20022;-74
2023/08/24 02:53:38;;;;;;;16.35;9.40;;;18.80;99.90;;;;;;5008938;28;20060;-74
2023/08/24 02:56:05;;;;;;;15.68;8.90;;;18.80;99.90;;;;;;5014449;28;20049;-74
2023/08/24 02:58:30;;;;;;;15.10;8.70;;;18.80;99.90;;;;;;5000487;28;20026;-74
2023/08/24 03:00:57;;;;;;;13.32;8.57;;;18.80;99.90;;;;;;4997013;28;20054;-74
2023/08/24 03:03:24;;;;;;;13.07;8.70;;;18.80;99.90;;;;;;4981454;28;20022;-74
2023/08/24 03:06:00;;;;;;;15.73;8.70;;;18.80;99.90;;;;;;4998159;28;20072;-74
2023/08/24 03:08:26;;;;;;;14.20;8.85;;;18.80;99.90;;;;;;5000678;28;20057;-73
2023/08/24 03:10:51;;;;;;;13.63;8.18;;;18.70;99.90;;;;;;5012829;28;20033;-74
2023/08/24 03:13:18;;;;;;;16.75;8.88;;;18.70;99.90;;;;;;4996895;28;20030;-74
2023/08/24 03:15:43;;;;;;;14.75;9.43;;;18.70;99.90;;;;;;4997199;28;20149;-73
2023/08/24 03:18:11;;;;;;;12.73;9.32;;;18.80;99.90;;;;;;4996905;28;20102;-74
2023/08/24 03:20:37;;;;;;;19.58;9.73;;;18.70;99.90;;;;;;4991404;28;20029;-74
2023/08/24 03:23:03;;;;;;;15.50;9.10;;;18.70;99.90;;;;;;4993436;28;20027;-74
2023/08/24 03:25:29;;;;;;;17.00;9.30;;;18.70;99.90;;;;;;4988353;28;20065;-73
2023/08/24 03:27:55;;;;;;;12.55;9.13;;;18.60;99.90;;;;;;4997170;28;20022;-74
2023/08/24 03:30:22;;;;;;;24.67;9.27;;;18.60;99.90;;;;;;4999389;28;20029;-74
2023/08/24 03:32:48;;;;;;;14.43;9.40;;;18.60;99.90;;;;;;5001489;28;20144;-74
2023/08/24 03:35:14;;;;;;;12.07;9.40;;;18.60;99.90;;;;;;4997112;28;20034;-74
2023/08/24 03:37:40;;;;;;;18.02;9.55;;;18.60;99.90;;;;;;4997255;28;20018;-73
2023/08/24 03:40:06;;;;;;;15.60;9.30;;;18.60;99.90;;;;;;5019719;28;20113;-74
2023/08/24 03:42:32;;;;;;;16.60;8.57;;;18.60;99.90;;;;;;4996342;28;20030;-73
2023/08/24 03:44:59;;;;;;;15.15;9.55;;;18.50;99.90;;;;;;5002843;28;20018;-74
2023/08/24 03:47:25;;;;;;;15.10;9.43;;;18.50;99.90;;;;;;4999000;28;20707;-74
2023/08/24 03:49:51;;;;;;;17.75;9.82;;;18.50;99.90;;;;;;5001738;28;20114;-74
2023/08/24 03:52:16;;;;;;;16.88;9.57;;;18.50;99.90;;;;;;4998721;28;20023;-73
2023/08/24 03:54:42;;;;;;;13.07;10.15;;;18.50;99.90;;;;;;4998853;28;20073;-74
2023/08/24 03:57:08;;;;;;;16.33;9.95;;;18.50;99.90;;;;;;4994665;28;20506;-73
2023/08/24 03:59:33;;;;;;;18.58;10.20;;;18.40;99.90;;;;;;4989401;28;20062;-73
2023/08/24 04:02:02;;;;;;;13.05;9.52;;;18.40;99.90;;;;;;5004528;28;20028;-74
2023/08/24 04:04:28;;;;;;;21.42;10.57;;;18.40;99.90;;;;;;4996681;28;20093;-74
2023/08/24 04:06:53;;;;;;;18.75;10.50;;;18.40;99.90;;;;;;4996136;28;20038;-74
2023/08/24 04:09:19;;;;;;;14.88;9.20;;;18.40;99.90;;;;;;4995151;28;20105;-74
2023/08/24 04:11:45;;;;;;;16.63;10.50;;;18.40;99.90;;;;;;4997531;28;20049;-74
2023/08/24 04:14:10;;;;;;;14.88;10.30;;;18.40;99.90;;;;;;4997864;28;20085;-74
2023/08/24 04:16:36;;;;;;;14.73;10.25;;;18.40;99.90;;;;;;4996460;28;20564;-74
2023/08/24 04:19:02;;;;;;;18.95;10.30;;;18.40;99.90;;;;;;4994739;28;20121;-74
2023/08/24 04:21:27;;;;;;;17.33;9.93;;;18.40;99.90;;;;;;4994818;28;20402;-73
2023/08/24 04:23:53;;;;;;;17.60;10.13;;;18.40;99.90;;;;;;5011199;28;20098;-74
2023/08/24 04:26:19;;;;;;;16.63;10.15;;;18.40;99.90;;;;;;4996938;28;20026;-74
2023/08/24 04:28:44;;;;;;;15.32;10.05;;;18.40;99.90;;;;;;4996381;28;20474;-73
2023/08/24 04:31:10;;;;;;;18.40;10.35;;;18.40;99.90;;;;;;4997486;28;20018;-74
2023/08/24 04:33:36;;;;;;;17.77;11.77;;;18.40;99.90;;;;;;4992820;28;20426;-74
2023/08/24 04:36:03;;;;;;;17.42;11.23;;;18.40;99.90;;;;;;4978873;28;20482;-74
2023/08/24 04:38:29;;;;;;;21.10;10.50;;;18.40;99.90;;;;;;5006758;28;20022;-74
2023/08/24 04:40:55;;;;;;;13.57;10.35;;;18.30;99.90;;;;;;4990617;28;20382;-75
2023/08/24 04:43:22;;;;;;;15.38;10.40;;;18.30;99.90;;;;;;4994211;28;20513;-74
2023/08/24 04:45:53;;;;;;;19.67;11.30;;;18.30;99.90;;;;;;4990592;28;20398;-74
2023/08/24 04:48:20;;;;;;;15.45;10.60;;;18.30;99.90;;;;;;4997250;28;20426;-74
2023/08/24 04:50:46;;;;;;;17.95;10.82;;;18.30;99.90;;;;;;4994396;28;20053;-73
2023/08/24 04:53:16;;;;;;;18.00;10.82;;;18.30;99.90;;;;;;4995028;28;20046;-74
2023/08/24 04:55:42;;;;;;;16.08;10.57;;;18.30;99.90;;;;;;5003070;28;20022;-73
2023/08/24 04:58:09;;;;;;;17.88;10.85;;;18.30;99.90;;;;;;5000146;28;20027;-73
2023/08/24 05:00:36;;;;;;;19.73;10.85;;;18.30;99.90;;;;;;4991436;28;20383;-72
2023/08/24 05:03:02;;;;;;;16.27;10.85;;;18.30;99.90;;;;;;4987868;28;20037;-72
2023/08/24 05:05:32;;;;;;;17.65;11.35;;;18.30;99.90;;;;;;4991596;28;21207;-72
2023/08/24 05:07:59;;;;;;;18.20;11.40;;;18.30;99.90;;;;;;4988683;28;20026;-72
2023/08/24 05:10:25;;;;;;;15.98;11.00;;;18.30;99.90;;;;;;5019528;28;20030;-72
2023/08/24 05:12:51;;;;;;;16.42;11.05;;;18.30;99.90;;;;;;4996208;28;20022;-72
2023/08/24 05:15:17;;;;;;;15.57;10.00;;;18.30;99.90;;;;;;4992087;28;20029;-72
2023/08/24 05:17:43;;;;;;;19.17;11.23;;;18.30;99.90;;;;;;4994526;28;20029;-72
2023/08/24 05:20:11;;;;;;;19.80;10.45;;;18.30;99.90;;;;;;4990041;28;20498;-73
2023/08/24 05:22:38;;;;;;;20.83;12.27;;;18.30;99.90;;;;;;4989582;28;20038;-73
2023/08/24 05:25:04;;;;;;;22.40;11.82;;;18.30;99.90;;;;;;4981862;28;20034;-72
2023/08/24 05:27:30;;;;;;;18.67;11.95;;;18.30;99.90;;;;;;4992355;28;20497;-73
2023/08/24 05:29:56;;;;;;;17.48;11.32;;;18.30;99.90;;;;;;4990754;28;20022;-73
2023/08/24 05:32:21;;;;;;;23.40;11.60;;;18.30;99.90;;;;;;4989764;28;20116;-73
2023/08/24 05:34:47;;;;;;;19.70;11.73;;;18.40;99.90;;;;;;4987638;28;20393;-73
2023/08/24 05:37:13;;;;;;;19.73;11.48;;;18.40;99.90;;;;;;4990219;28;20026;-73
2023/08/24 05:39:39;;;;;;;17.70;11.88;;;18.40;99.90;;;;;;4990187;28;20035;-73
2023/08/24 05:42:05;;;;;;;20.05;12.00;;;18.50;99.90;;;;;;5002186;28;20030;-73
2023/08/24 05:44:31;;;;;;;22.13;13.25;;;18.50;99.90;;;;;;4985199;28;20030;-74
2023/08/24 05:46:56;;;;;;;21.63;13.65;;;18.50;99.90;;;;;;4985191;28;20484;-74
2023/08/24 05:49:22;;;;;;;24.52;13.27;;;18.50;99.90;;;;;;4993665;28;20033;-75
2023/08/24 05:51:51;;;;;;;22.20;12.68;;;18.60;99.90;;;;;;5017865;28;20029;-75
2023/08/24 05:54:20;;;;;;;20.88;13.65;;;18.60;99.90;;;;;;4993927;28;20068;-75
2023/08/24 05:56:46;;;;;;;23.45;14.02;;;18.60;99.90;;;;;;5006284;28;20022;-75
2023/08/24 05:59:12;;;;;;;23.83;14.05;;;18.60;99.90;;;;;;4997970;28;20141;-75
2023/08/24 06:01:38;;;;;;;24.80;14.27;;;18.60;99.90;;;;;;4996812;28;20165;-75
2023/08/24 06:04:13;;;;;;;27.02;13.75;;;18.70;99.90;;;;;;4991967;28;20571;-75
2023/08/24 06:06:39;;;;;;;29.30;14.70;;;18.70;99.90;;;;;;4991971;28;20401;-75
2023/08/24 06:09:04;;;;;;;31.30;15.02;;;18.80;99.90;;;;;;5011537;28;20038;-75
2023/08/24 06:11:30;;;;;;;25.50;14.48;;;18.80;99.90;;;;;;5003742;28;20093;-75
2023/08/24 06:13:56;;;;;;;24.35;14.07;;;18.80;99.90;;;;;;4991257;28;20030;-75
2023/08/24 06:16:21;;;;;;;25.05;14.40;;;18.80;99.90;;;;;;4975750;28;20026;-75
2023/08/24 06:18:47;;;;;;;21.90;15.15;;;18.90;99.90;;;;;;4979158;28;20089;-75
2023/08/24 06:21:13;;;;;;;22.63;14.35;;;18.90;99.90;;;;;;4985063;28;20039;-75
2023/08/24 06:23:39;;;;;;;25.90;14.43;;;18.90;99.90;;;;;;4988287;28;20084;-75
2023/08/24 06:26:04;;;;;;;21.20;14.68;;;19.00;99.90;;;;;;4988357;28;20392;-75
2023/08/24 06:28:30;;;;;;;26.52;14.63;;;19.00;99.90;;;;;;4990522;28;20018;-75
2023/08/24 06:30:56;;;;;;;27.00;15.43;;;19.00;99.90;;;;;;4992000;28;20022;-75
2023/08/24 06:33:29;;;;;;;23.60;14.68;;;19.10;99.90;;;;;;4999461;28;20018;-75
2023/08/24 06:35:56;;;;;;;25.17;16.45;;;19.20;99.90;;;;;;4997721;28;20014;-77
2023/08/24 06:38:22;;;;;;;26.65;15.48;;;19.20;99.90;;;;;;5003274;28;20019;-75
2023/08/24 06:40:48;;;;;;;23.55;15.27;;;19.20;99.90;;;;;;4998033;28;20465;-75
2023/08/24 06:43:14;;;;;;;26.70;15.30;;;19.20;99.90;;;;;;4998022;28;20097;-75
2023/08/24 06:45:40;;;;;;;28.00;15.95;;;19.30;99.90;;;;;;4997467;28;20053;-75
2023/08/24 06:48:07;;;;;;;26.83;16.73;;;19.40;99.90;;;;;;5003732;28;20022;-75
2023/08/24 06:50:33;;;;;;;25.58;16.42;;;19.40;99.90;;;;;;4996206;28;20030;-75
2023/08/24 06:52:59;;;;;;;31.98;17.40;;;19.40;99.90;;;;;;5019400;28;20124;-75
2023/08/24 06:55:26;;;;;;;27.55;17.45;;;19.50;99.90;;;;;;4996998;28;20105;-75
2023/08/24 06:57:51;;;;;;;30.05;16.95;;;19.50;99.90;;;;;;5004059;28;20080;-75
2023/08/24 07:00:19;;;;;;;31.15;17.23;;;19.60;99.90;;;;;;4997207;28;20200;-75
2023/08/24 07:02:46;;;;;;;29.83;16.50;;;19.60;99.90;;;;;;4992224;28;20129;-75
2023/08/24 07:05:12;;;;;;;24.67;16.42;;;19.70;99.90;;;;;;4996828;28;20025;-75
2023/08/24 07:07:38;;;;;;;27.83;17.60;;;19.80;99.90;;;;;;4994769;28;20030;-75
2023/08/24 07:10:04;;;;;;;33.70;18.58;;;19.80;99.90;;;;;;4993635;28;20026;-76
2023/08/24 07:12:30;;;;;;;32.80;18.17;;;19.90;99.90;;;;;;4980463;28;20035;-75
2023/08/24 07:14:56;;;;;;;30.25;19.27;;;20.00;99.90;;;;;;4995724;28;20049;-74
2023/08/24 07:17:21;;;;;;;27.33;16.90;;;20.00;99.90;;;;;;4997861;28;20393;-74
2023/08/24 07:19:47;;;;;;;26.30;17.48;;;20.10;99.90;;;;;;4995632;28;20026;-73
2023/08/24 07:22:13;;;;;;;26.88;17.23;;;20.20;99.90;;;;;;4991323;28;20042;-74
2023/08/24 07:24:39;;;;;;;29.15;18.13;;;20.30;99.90;;;;;;4992326;28;20026;-74
2023/08/24 07:27:05;;;;;;;26.50;17.08;;;20.50;99.90;;;;;;5007798;28;20034;-75
2023/08/24 07:29:31;;;;;;;25.63;17.02;;;20.60;99.90;;;;;;4999774;28;20029;-74
2023/08/24 07:31:57;;;;;;;26.38;16.50;;;20.80;99.90;;;;;;4989803;28;20476;-74
2023/08/24 07:34:22;;;;;;;27.13;16.13;;;21.00;99.90;;;;;;4992988;28;20022;-74
2023/08/24 07:36:50;;;;;;;22.02;16.20;;;21.10;99.90;;;;;;4995847;28;20018;-75
2023/08/24 07:39:15;;;;;;;28.40;16.20;;;21.30;99.90;;;;;;4993824;28;20436;-74
2023/08/24 07:41:41;;;;;;;26.50;15.13;;;21.40;99.90;;;;;;4995853;28;20027;-74
2023/08/24 07:44:07;;;;;;;27.23;15.50;;;21.50;99.90;;;;;;4991884;28;20045;-74
2023/08/24 07:46:33;;;;;;;27.15;15.65;;;21.60;99.90;;;;;;4992793;28;20041;-74
2023/08/24 07:48:59;;;;;;;21.73;14.63;;;21.70;99.90;;;;;;4992841;28;20102;-74
2023/08/24 07:51:25;;;;;;;29.67;15.65;;;21.70;99.90;;;;;;4992905;28;20027;-74
2023/08/24 07:53:52;;;;;;;28.10;16.10;;;21.80;99.90;;;;;;4993573;28;20382;-74
2023/08/24 07:56:18;;;;;;;29.25;15.90;;;21.90;99.90;;;;;;4989426;28;20109;-74
2023/08/24 07:58:44;;;;;;;27.40;14.93;;;22.00;99.90;;;;;;4992155;28;20101;-74
2023/08/24 08:01:10;;;;;;;22.95;14.57;;;22.10;99.90;;;;;;4982256;28;20184;-74
2023/08/24 08:03:35;;;;;;;24.15;14.75;;;22.20;99.90;;;;;;4988742;28;20474;-74
2023/08/24 08:06:02;;;;;;;26.95;15.05;;;22.30;99.90;;;;;;4982353;28;20019;-74
2023/08/24 08:08:28;;;;;;;23.10;14.40;;;22.30;99.90;;;;;;4992025;28;20533;-74
2023/08/24 08:11:01;;;;;;;23.40;13.93;;;22.40;99.90;;;;;;5007842;28;20020;-74
2023/08/24 08:13:29;;;;;;;22.75;14.32;;;22.50;99.90;;;;;;4990727;28;20026;-74
2023/08/24 08:16:07;;;;;;;20.77;13.25;;;22.60;99.90;;;;;;4996693;28;20157;-74
2023/08/24 08:18:33;;;;;;;21.42;14.45;;;22.70;99.90;;;;;;4992890;28;20018;-74
2023/08/24 08:20:59;;;;;;;21.75;13.82;;;22.80;99.90;;;;;;4997349;28;20040;-74
2023/08/24 08:23:25;;;;;;;20.63;13.30;;;22.80;99.90;;;;;;4996585;28;20023;-75
2023/08/24 08:25:50;;;;;;;24.23;14.63;;;22.90;99.90;;;;;;4974946;28;20031;-74
2023/08/24 08:28:17;;;;;;;21.25;14.05;;;23.00;99.90;;;;;;4989488;28;20393;-74
2023/08/24 08:30:44;;;;;;;28.23;14.43;;;23.00;99.90;;;;;;4991722;28;20116;-74
2023/08/24 08:33:09;;;;;;;24.77;15.07;;;23.00;99.90;;;;;;4996205;28;20088;-74
2023/08/24 08:35:35;;;;;;;28.55;14.82;;;23.10;99.90;;;;;;4996899;28;20038;-74
2023/08/24 08:38:01;;;;;;;20.63;13.70;;;23.10;99.90;;;;;;4981196;28;20018;-74
2023/08/24 08:40:30;;;;;;;21.42;13.48;;;23.20;99.90;;;;;;4991483;28;20437;-74
2023/08/24 08:42:59;;;;;;;24.52;14.35;;;23.20;99.90;;;;;;4992833;28;20405;-74
2023/08/24 08:45:28;;;;;;;21.08;13.75;;;23.20;99.90;;;;;;4992053;28;20227;-74
2023/08/24 08:48:02;;;;;;;22.75;13.85;;;23.30;99.90;;;;;;4992427;28;20019;-74
2023/08/24 08:50:31;;;;;;;24.30;14.20;;;23.30;99.90;;;;;;4994002;28;20490;-74
2023/08/24 08:52:58;;;;;;;22.48;13.63;;;23.30;99.90;;;;;;4992299;28;20038;-74
2023/08/24 08:55:25;;;;;;;25.13;15.05;;;23.40;99.90;;;;;;5002031;28;20068;-76
2023/08/24 08:57:53;;;;;;;20.33;14.15;;;23.50;99.90;;;;;;4992914;28;20032;-76
2023/08/24 09:00:20;;;;;;;22.67;15.32;;;23.50;99.90;;;;;;4993956;28;20053;-76
2023/08/24 09:02:49;;;;;;;20.20;14.07;;;23.60;99.90;;;;;;4981563;28;20038;-75
2023/08/24 09:05:15;;;;;;;22.05;15.20;;;23.60;99.90;;;;;;4993032;28;20061;-76
2023/08/24 09:07:41;;;;;;;24.13;14.20;;;23.60;99.90;;;;;;4982756;28;20041;-75
2023/08/24 09:10:08;;;;;;;22.60;13.40;;;23.70;99.90;;;;;;5001691;28;20485;-73
2023/08/24 09:12:34;;;;;;;21.98;14.40;;;23.80;99.90;;;;;;4995005;28;20098;-74
2023/08/24 09:15:03;;;;;;;23.80;14.43;;;23.90;99.90;;;;;;4995036;28;20390;-74
2023/08/24 09:17:29;;;;;;;21.50;14.60;;;24.00;99.90;;;;;;4991033;28;20084;-74
2023/08/24 09:19:59;;;;;;;19.63;14.35;;;24.00;99.90;;;;;;4992252;28;20022;-74
2023/08/24 09:22:24;;;;;;;24.73;15.25;;;24.20;99.90;;;;;;4986650;28;20105;-74
2023/08/24 09:24:50;;;;;;;26.48;14.13;;;24.20;99.90;;;;;;4986867;28;20126;-74
2023/08/24 09:27:17;;;;;;;29.80;13.82;;;24.20;99.90;;;;;;4991357;28;20493;-74
2023/08/24 09:29:47;;;;;;;24.35;13.70;;;24.20;99.90;;;;;;4991471;28;20105;-75
2023/08/24 09:32:12;;;;;;;20.77;12.82;;;24.20;99.90;;;;;;4991947;28;20018;-74
2023/08/24 09:34:38;;;;;;;23.38;14.57;;;24.20;99.90;;;;;;4990930;28;20094;-74
2023/08/24 09:37:04;;;;;;;23.15;14.60;;;24.20;99.90;;;;;;4985407;28;20014;-74
2023/08/24 09:39:30;;;;;;;24.65;13.82;;;24.20;99.90;;;;;;4988222;28;20038;-74
2023/08/24 09:42:02;;;;;;;21.80;13.75;;;24.20;99.90;;;;;;4990335;28;20113;-73
2023/08/24 09:44:28;;;;;;;22.25;13.95;;;24.20;99.90;;;;;;4983894;28;20038;-74
2023/08/24 09:46:54;;;;;;;23.25;14.43;;;24.10;99.90;;;;;;4980263;28;20022;-75
2023/08/24 09:49:20;;;;;;;21.67;13.52;;;24.10;99.90;;;;;;4989484;28;20046;-74
2023/08/24 09:51:46;;;;;;;24.33;14.48;;;24.10;99.90;;;;;;4989236;28;20034;-74
2023/08/24 09:54:13;;;;;;;22.15;13.82;;;24.00;99.90;;;;;;4995570;28;20032;-74
2023/08/24 09:56:41;;;;;;;28.02;15.05;;;24.00;99.90;;;;;;4995671;28;20117;-74
2023/08/24 09:59:18;;;;;;;20.50;14.25;;;24.00;99.90;;;;;;4984159;28;20027;-74
2023/08/24 10:01:48;;;;;;;26.70;15.07;;;23.90;99.90;;;;;;4981199;28;20026;-74
2023/08/24 10:04:24;;;;;;;23.77;15.30;;;23.80;99.90;;;;;;4988442;28;20023;-74
2023/08/24 10:06:57;;;;;;;21.55;15.43;;;23.80;99.90;;;;;;4989520;28;20485;-74
2023/08/24 10:09:31;;;;;;;26.23;16.42;;;23.80;99.90;;;;;;4988250;28;20078;-74
2023/08/24 10:12:00;;;;;;;28.10;15.65;;;23.70;99.90;;;;;;5001052;28;20386;-75
2023/08/24 10:14:34;;;;;;;23.75;15.32;;;23.70;99.90;;;;;;4991244;28;20113;-74
2023/08/24 10:17:00;;;;;;;23.90;15.57;;;23.60;99.90;;;;;;4993458;28;20495;-74
2023/08/24 10:19:27;;;;;;;24.98;15.50;;;23.60;99.90;;;;;;5010032;28;20076;-74
2023/08/24 10:21:57;;;;;;;28.90;16.05;;;23.60;99.90;;;;;;4995513;28;20030;-74
2023/08/24 10:24:23;;;;;;;25.40;15.75;;;23.60;99.90;;;;;;4990411;28;20102;-74
2023/08/24 10:26:50;;;;;;;25.77;15.95;;;23.60;99.90;;;;;;4995643;28;20500;-74
2023/08/24 10:29:17;;;;;;;27.00;14.88;;;23.60;99.90;;;;;;4989305;28;20026;-74
2023/08/24 10:31:44;;;;;;;29.73;15.45;;;23.70;99.90;;;;;;5003657;28;20031;-74
2023/08/24 10:34:10;;;;;;;19.77;13.98;;;23.70;99.90;;;;;;5005616;28;20037;-74
2023/08/24 10:36:41;;;;;;;25.80;14.80;;;23.80;99.90;;;;;;4996291;28;20026;-74
2023/08/24 10:39:07;;;;;;;26.27;15.68;;;23.90;99.90;;;;;;5004669;28;20157;-74
2023/08/24 10:41:52;;;;;;;21.58;14.85;;;23.90;99.90;;;;;;4994154;28;20114;-74
2023/08/24 10:44:22;;;;;;;;;;;24.10;99.90;;;;;;4994743;28;20023;-74
2023/08/24 10:47:16;;;;;;;23.73;14.93;;;24.20;99.90;;;;;;4998994;28;19913;-74
2023/08/24 10:49:43;;;;;;;24.75;14.90;;;24.30;99.90;;;;;;5014361;28;20018;-74
2023/08/24 10:52:25;;;;;;;25.58;13.93;;;24.30;99.90;;;;;;4998204;28;20049;-74
2023/08/24 10:54:54;;;;;;;22.33;14.23;;;24.40;99.90;;;;;;4999553;28;20027;-75
2023/08/24 10:57:43;;;;;;;24.98;15.50;;;24.40;99.90;;;;;;5000885;28;20026;-76
2023/08/24 11:00:11;;;;;;;27.83;15.20;;;24.40;99.90;;;;;;5000887;28;20051;-75
2023/08/24 11:02:47;;;;;;;23.25;15.60;;;24.40;99.90;;;;;;4998101;28;20035;-75
2023/08/24 11:05:22;;;;;;;24.48;15.13;;;24.40;99.90;;;;;;5005284;28;20014;-76
2023/08/24 11:07:52;;;;;;;;;;;24.40;99.90;;;;;;4989353;28;20030;-75
2023/08/24 11:10:18;;;;;;;23.33;14.82;;;24.40;99.90;;;;;;4997090;28;19955;-75
2023/08/24 11:13:13;;;;;;;25.35;16.13;;;24.40;99.90;;;;;;5011353;28;20053;-75
2023/08/24 11:15:44;;;;;;;25.73;16.27;;;24.50;99.90;;;;;;4998134;28;20045;-75
2023/08/24 11:18:28;;;;;;;22.10;14.65;;;24.50;99.90;;;;;;4999716;28;20393;-75
2023/08/24 11:20:56;;;;;;;22.63;14.93;;;24.50;99.90;;;;;;4998421;28;20049;-75
2023/08/24 11:23:26;;;;;;;19.08;13.50;;;24.50;99.90;;;;;;5003092;28;20600;-75
2023/08/24 11:25:59;;;;;;;26.45;15.70;;;24.40;99.90;;;;;;4996390;28;20086;-75
2023/08/24 11:28:26;;;;;;;19.98;13.38;;;24.30;99.90;;;;;;4995744;28;20371;-75
2023/08/24 11:30:55;;;;;;;23.30;15.20;;;24.30;99.90;;;;;;4999978;28;20018;-75
2023/08/24 11:33:31;;;;;;;26.05;14.88;;;24.20;99.90;;;;;;5000112;28;20057;-74
2023/08/24 11:35:57;;;;;;;24.15;15.45;;;24.10;99.90;;;;;;4999073;28;20019;-75
2023/08/24 11:38:22;;;;;;;24.02;15.32;;;24.10;99.90;;;;;;5005981;28;20465;-74
2023/08/24 11:40:48;;;;;;;23.58;14.20;;;24.10;99.90;;;;;;5009684;28;20024;-75
2023/08/24 11:43:26;;;;;;;23.33;14.88;;;24.10;99.90;;;;;;5025519;28;20030;-75
2023/08/24 11:45:54;;;;;;;24.20;16.35;;;24.10;99.90;;;;;;5006440;28;20029;-75
2023/08/24 11:48:25;;;;;;;27.20;15.50;;;24.10;99.90;;;;;;5007410;28;20018;-75
2023/08/24 11:50:51;;;;;;;26.75;16.60;;;24.10;99.90;;;;;;5006276;28;20046;-75
2023/08/24 11:53:17;;;;;;;25.45;16.13;;;24.10;99.90;;;;;;4999555;28;20026;-75
2023/08/24 11:55:43;;;;;;;26.35;15.60;;;24.20;99.90;;;;;;5003817;28;20029;-75
2023/08/24 11:58:16;;;;;;;22.35;15.73;;;24.20;99.90;;;;;;5006477;28;20085;-75
2023/08/24 12:00:42;;;;;;;24.60;15.48;;;24.30;99.90;;;;;;5005205;28;20051;-75
2023/08/24 12:03:09;;;;;;;23.27;15.70;;;24.40;99.90;;;;;;5010345;28;20032;-75
2023/08/24 12:05:35;;;;;;;22.58;15.75;;;24.60;99.90;;;;;;5025421;28;20121;-75
2023/08/24 12:08:01;;;;;;;22.90;15.63;;;24.70;99.90;;;;;;5015228;28;20026;-75
2023/08/24 12:10:26;;;;;;;26.40;16.77;;;24.80;99.90;;;;;;5007566;28;20057;-75
2023/08/24 12:13:05;;;;;;;23.48;16.67;;;24.90;99.90;;;;;;5001100;28;20069;-75
2023/08/24 12:15:33;;;;;;;23.88;15.75;;;24.90;99.90;;;;;;4997922;28;20034;-75
2023/08/24 12:18:08;;;;;;;25.30;17.27;;;24.90;99.90;;;;;;5000647;28;20041;-75
2023/08/24 12:20:33;;;;;;;25.73;16.38;;;24.90;99.90;;;;;;5004889;28;20052;-75
2023/08/24 12:23:00;;;;;;;23.38;15.55;;;25.00;99.90;;;;;;4997903;28;20342;-75
2023/08/24 12:25:25;;;;;;;25.73;16.77;;;25.10;99.90;;;;;;5010605;28;20018;-75
2023/08/24 12:27:52;;;;;;;21.58;15.55;;;25.30;99.90;;;;;;5012751;28;20011;-75
2023/08/24 12:30:19;;;;;;;24.35;16.77;;;25.40;99.90;;;;;;5011362;28;20019;-73
2023/08/24 12:32:46;;;;;;;25.70;17.55;;;25.60;99.90;;;;;;5014703;28;20404;-75